Aérodrome :
LOGIN :

S'inscrire | Disclaimer

   EN    FR    IT 

 










Légende :    VFR   VFR Marginal   IFR   IFR Intensif   IFR Très Intensif
Visi : 
Plafond : 
>= 8 km
>= 3000ft
5 à 8 km
1000 à 3000 ft
1500m à 5 km
500 à 1000 ft
800 à 1500m
200 à 500 ft
< 800m
< 200 ft
Symboles :   Orages  Brouillard  Fortes neiges  Fortes précipitations  Vent > 20 kt
SIGMETs :   Divers  Orages  Givrage  Turbulence  Onde Orograph.  Cendres Volcan.






- Altitude de l'aérodrome : 3 ft
- Code IATA : LWR


EHLW - Leuuwarden Air Base

DERNIER METAR :
  • 261925Z AUTO 17010KT 140V200 //// // SCT025 BKN059 OVC270 06/05 Q1010 RE//

METARs EXPIRÉS :
  • 261855Z AUTO 18009KT 140V210 //// // SCT016 BKN019 OVC023 07/06 Q1010 RE//
  • 261825Z AUTO 17009KT 140V200 //// // BKN017 OVC020 07/06 Q1010 RE//
  • 261755Z AUTO 17009KT //// // OVC017 06/05 Q1010 RE//
  • 261725Z AUTO 17010KT 140V200 //// // BKN018 BKN060 06/05 Q1011 RE//
  • 261655Z AUTO 17009KT 130V190 //// // FEW018 OVC029 06/05 Q1011 RE//

TAF TAF EHLW
Valide du 26 à 10h jusqu'au 26 à 22h UTC


260953Z 2610/2622 17010KT 4500 BR SCT004 OVC005
BECMG 2611/2614 18008KT 9000 NSW NSC
PROB30
TEMPO 2610/2617 SCT008



MET'MAP, la Météo Aéronautique d'un coup d'oeil ! - Copyright ORBIFLY Décembre 2007 - Disclaimer

ORBIFLY MET'MAP TEAM :

Programmation & Développement : Alexandra Zaïnal
Sur une idée originale de : Baudouin d'Aumeries
Assistance à la programmation : Marc-Olivier Méhu
Soutien technique & logistique : Manuel Goepfert

Contact : metmap@orbifly.com




SOURCES & CREDITS :

   NOAA